createdAt,value
2017-10-09T00:02:21.520Z,2.00
2017-10-09T00:04:50.400Z,1.67
2017-10-09T00:07:19.272Z,2.03
2017-10-09T00:09:48.161Z,2.07
2017-10-09T00:12:17.024Z,1.53
2017-10-09T00:14:45.895Z,1.70
2017-10-09T00:17:14.756Z,1.90
2017-10-09T00:19:43.631Z,1.80
2017-10-09T00:22:12.488Z,1.57
2017-10-09T00:24:41.355Z,2.43
2017-10-09T00:27:10.213Z,2.40
2017-10-09T00:29:39.083Z,2.23
2017-10-09T00:32:07.952Z,2.10
2017-10-09T00:34:36.823Z,1.93
2017-10-09T00:37:05.678Z,2.03
2017-10-09T00:39:34.554Z,1.80
2017-10-09T00:42:03.413Z,1.70
2017-10-09T00:44:32.293Z,2.37
2017-10-09T00:47:01.154Z,1.77
2017-10-09T00:49:30.035Z,1.50
2017-10-09T00:51:58.893Z,2.03
2017-10-09T00:54:27.764Z,2.50
2017-10-09T00:56:56.620Z,2.00
2017-10-09T00:59:25.476Z,1.93
2017-10-09T01:01:54.428Z,1.67
2017-10-09T01:04:23.283Z,2.60
2017-10-09T01:06:52.156Z,1.67
2017-10-09T01:09:21.007Z,2.23
2017-10-09T01:11:49.896Z,1.90
2017-10-09T01:14:18.756Z,1.87
2017-10-09T01:16:47.625Z,2.10
2017-10-09T01:19:16.484Z,2.13
2017-10-09T01:21:45.360Z,1.80
2017-10-09T01:24:14.224Z,2.27
2017-10-09T01:26:43.104Z,1.80
2017-10-09T01:29:11.960Z,1.97
2017-10-09T01:31:40.815Z,1.90
2017-10-09T01:34:09.684Z,2.17
2017-10-09T01:36:38.538Z,2.10
2017-10-09T01:39:07.411Z,2.67
2017-10-09T01:41:36.263Z,2.23
2017-10-09T01:44:05.139Z,2.00
2017-10-09T01:46:34.411Z,2.23
2017-10-09T01:49:03.284Z,2.37
2017-10-09T01:51:32.144Z,1.93
2017-10-09T01:54:01.016Z,2.50
2017-10-09T01:56:29.873Z,2.40
2017-10-09T01:58:58.749Z,1.87
2017-10-09T02:01:27.607Z,2.30
2017-10-09T02:03:56.481Z,2.00
2017-10-09T02:06:25.345Z,2.60
2017-10-09T02:08:54.250Z,1.87
2017-10-09T02:11:23.096Z,2.30
2017-10-09T02:13:51.968Z,2.40
2017-10-09T02:16:20.825Z,2.60
2017-10-09T02:18:49.697Z,2.63
2017-10-09T02:21:18.552Z,2.20
2017-10-09T02:23:47.428Z,2.40
2017-10-09T02:26:16.284Z,1.97
2017-10-09T02:28:45.157Z,2.43
2017-10-09T02:31:14.032Z,2.23
2017-10-09T02:33:42.892Z,2.30
2017-10-09T02:36:11.761Z,2.47
2017-10-09T02:38:40.615Z,2.80
2017-10-09T02:41:09.495Z,2.50
2017-10-09T02:43:38.348Z,2.67
2017-10-09T02:46:07.219Z,2.80
2017-10-09T02:48:36.080Z,2.80
2017-10-09T02:51:04.961Z,2.50
2017-10-09T02:53:33.819Z,3.03
2017-10-09T02:56:02.723Z,2.60
2017-10-09T02:58:31.584Z,2.70
2017-10-09T03:01:00.461Z,2.73
2017-10-09T03:03:29.320Z,3.23
2017-10-09T03:05:58.191Z,2.77
2017-10-09T03:08:27.052Z,2.90
2017-10-09T03:10:55.927Z,2.67
2017-10-09T03:13:24.781Z,3.00
2017-10-09T03:15:53.635Z,3.60
2017-10-09T03:18:22.508Z,2.53
2017-10-09T03:20:51.360Z,2.60
2017-10-09T03:23:22.768Z,3.40
2017-10-09T03:25:57.385Z,3.00
2017-10-09T03:28:29.915Z,3.10
2017-10-09T03:30:58.773Z,3.17
2017-10-09T03:33:27.648Z,2.90
2017-10-09T03:35:56.503Z,2.93
2017-10-09T03:38:25.376Z,2.60
2017-10-09T03:40:54.283Z,2.60
2017-10-09T03:43:23.163Z,3.40
2017-10-09T03:45:52.023Z,3.20
2017-10-09T03:48:20.904Z,3.33
2017-10-09T03:50:49.766Z,3.87
2017-10-09T03:53:18.648Z,2.93
2017-10-09T03:55:47.508Z,2.97
2017-10-09T03:58:16.387Z,3.07
2017-10-09T04:00:45.243Z,2.87
2017-10-09T04:03:14.118Z,2.73
2017-10-09T04:05:42.973Z,2.90
2017-10-09T04:08:11.844Z,2.90
2017-10-09T04:10:40.699Z,3.57
2017-10-09T04:13:09.592Z,2.90
2017-10-09T04:15:38.448Z,3.40
2017-10-09T04:18:07.307Z,2.93
2017-10-09T04:20:36.279Z,3.70
2017-10-09T04:23:05.149Z,3.30
2017-10-09T04:25:34.016Z,3.43
2017-10-09T04:28:02.874Z,3.07
2017-10-09T04:30:31.743Z,3.67
2017-10-09T04:33:00.603Z,3.60
2017-10-09T04:35:29.481Z,3.20
2017-10-09T04:37:58.340Z,3.77
2017-10-09T04:40:27.215Z,3.50
2017-10-09T04:42:56.068Z,3.20
2017-10-09T04:45:24.945Z,3.20
2017-10-09T04:47:53.800Z,3.63
2017-10-09T04:50:22.681Z,3.93
2017-10-09T04:52:51.542Z,3.30
2017-10-09T04:55:20.411Z,3.20
2017-10-09T04:57:49.276Z,4.03
2017-10-09T05:00:18.160Z,3.60
2017-10-09T05:02:47.017Z,4.30
2017-10-09T05:05:15.888Z,3.40
2017-10-09T05:07:44.749Z,3.40
2017-10-09T05:10:13.619Z,4.33
2017-10-09T05:12:42.472Z,4.03
2017-10-09T05:15:11.332Z,3.93
2017-10-09T05:17:40.220Z,3.87
2017-10-09T05:20:09.084Z,3.50
2017-10-09T05:22:37.960Z,4.00
2017-10-09T05:25:06.812Z,4.30
2017-10-09T05:27:35.692Z,4.40
2017-10-09T05:30:04.544Z,3.83
2017-10-09T05:32:33.420Z,6.80
2017-10-09T05:35:02.276Z,4.90
2017-10-09T05:37:31.147Z,4.10
2017-10-09T05:40:00.005Z,3.83
2017-10-09T05:42:28.876Z,4.47
2017-10-09T05:44:57.737Z,4.37
2017-10-09T05:47:26.613Z,4.30
2017-10-09T05:49:55.476Z,4.57
2017-10-09T05:52:24.351Z,4.60
2017-10-09T05:54:53.209Z,4.63
2017-10-09T05:57:22.080Z,4.37
2017-10-09T05:59:50.940Z,4.77
2017-10-09T06:02:19.812Z,4.97
2017-10-09T06:04:48.668Z,5.27
2017-10-09T06:07:17.544Z,4.40
2017-10-09T06:09:46.406Z,4.60
2017-10-09T06:12:15.277Z,3.87
2017-10-09T06:14:44.143Z,4.20
2017-10-09T06:17:13.011Z,4.30
2017-10-09T06:19:41.889Z,5.27
2017-10-09T06:22:10.745Z,5.07
2017-10-09T06:24:39.620Z,4.67
2017-10-09T06:27:08.472Z,4.63
2017-10-09T06:29:37.355Z,3.97
2017-10-09T06:32:06.212Z,5.40
2017-10-09T06:34:35.092Z,3.93
2017-10-09T06:37:03.977Z,4.50
2017-10-09T06:39:32.851Z,4.03
2017-10-09T06:42:01.709Z,4.00
2017-10-09T06:44:30.583Z,3.77
2017-10-09T06:46:59.443Z,4.43
2017-10-09T06:49:28.315Z,3.43
2017-10-09T06:51:57.186Z,4.43
2017-10-09T06:54:26.057Z,4.33
2017-10-09T06:56:54.969Z,3.90
2017-10-09T06:59:23.903Z,3.70
2017-10-09T07:01:52.764Z,3.13
2017-10-09T07:04:21.618Z,4.07
2017-10-09T07:06:50.488Z,4.23
2017-10-09T07:09:19.346Z,3.60
2017-10-09T07:11:48.229Z,3.53
2017-10-09T07:14:17.084Z,3.50
2017-10-09T07:16:45.960Z,3.50
2017-10-09T07:19:14.835Z,3.23
2017-10-09T07:21:43.716Z,3.70
2017-10-09T07:24:12.573Z,5.13
2017-10-09T07:26:41.450Z,4.17
2017-10-09T07:29:10.303Z,4.43
2017-10-09T07:31:39.171Z,3.83
2017-10-09T07:34:08.024Z,3.50
2017-10-09T07:36:36.892Z,4.50
2017-10-09T07:39:05.753Z,4.63
2017-10-09T07:41:34.697Z,3.83
2017-10-09T07:44:03.571Z,4.10
2017-10-09T07:46:32.432Z,4.37
2017-10-09T07:49:01.304Z,3.87
2017-10-09T07:51:30.161Z,3.77
2017-10-09T07:53:59.046Z,4.80
2017-10-09T07:56:27.903Z,4.50
2017-10-09T07:58:56.817Z,4.63
2017-10-09T08:01:25.676Z,4.80
2017-10-09T08:03:54.586Z,4.90
2017-10-09T08:06:23.444Z,4.90
2017-10-09T08:08:52.326Z,4.97
2017-10-09T08:11:21.189Z,4.63
2017-10-09T08:13:50.078Z,5.10
2017-10-09T08:16:18.937Z,5.93
2017-10-09T08:18:47.820Z,4.77
2017-10-09T08:21:16.688Z,5.40
2017-10-09T08:23:45.552Z,6.60
2017-10-09T08:26:14.434Z,6.17
2017-10-09T08:28:43.286Z,5.90
2017-10-09T08:31:12.169Z,5.50
2017-10-09T08:33:41.026Z,5.40
2017-10-09T08:36:09.900Z,5.62
2017-10-09T08:38:38.756Z,4.93
2017-10-09T08:41:07.629Z,4.97
2017-10-09T08:43:36.490Z,4.95
2017-10-09T08:46:05.372Z,5.18
2017-10-09T08:48:34.237Z,4.62
2017-10-09T08:51:03.110Z,5.03
2017-10-09T08:53:31.964Z,5.00
2017-10-09T08:56:00.836Z,4.47
2017-10-09T08:58:29.704Z,4.28
2017-10-09T09:00:58.593Z,4.32
2017-10-09T09:03:27.456Z,4.07
2017-10-09T09:05:56.354Z,4.28
2017-10-09T09:08:25.212Z,4.65
2017-10-09T09:10:54.069Z,5.07
2017-10-09T09:13:22.953Z,4.60
2017-10-09T09:15:51.807Z,4.10
2017-10-09T09:18:20.675Z,3.58
2017-10-09T09:20:49.534Z,3.80
2017-10-09T09:23:18.411Z,4.15
2017-10-09T09:25:47.320Z,4.05
2017-10-09T09:28:16.197Z,3.37
2017-10-09T09:30:45.061Z,4.20
2017-10-09T09:33:13.940Z,3.40
2017-10-09T09:35:42.804Z,3.87
2017-10-09T09:38:11.797Z,3.40
2017-10-09T09:40:40.655Z,3.70
2017-10-09T09:43:09.528Z,3.72
2017-10-09T09:45:38.385Z,3.10
2017-10-09T09:48:07.265Z,3.67
2017-10-09T09:50:36.128Z,3.60
2017-10-09T09:53:05.010Z,3.50
2017-10-09T09:55:33.868Z,3.03
2017-10-09T09:58:02.796Z,3.17
2017-10-09T10:00:31.787Z,3.37
2017-10-09T10:03:00.651Z,2.95
2017-10-09T10:05:29.518Z,3.00
2017-10-09T10:07:58.582Z,2.55
2017-10-09T10:10:27.650Z,3.40
2017-10-09T10:12:56.540Z,2.20
2017-10-09T10:15:25.565Z,3.12
2017-10-09T10:17:54.516Z,2.10
2017-10-09T10:20:23.396Z,1.85
2017-10-09T10:22:52.253Z,2.60
2017-10-09T10:25:21.124Z,2.95
2017-10-09T10:27:49.981Z,2.35
2017-10-09T10:30:18.872Z,2.10
2017-10-09T10:32:47.731Z,2.30
2017-10-09T10:35:16.641Z,1.77
2017-10-09T10:37:45.508Z,1.80
2017-10-09T10:40:14.385Z,1.83
2017-10-09T10:42:43.240Z,2.05
2017-10-09T10:45:12.115Z,1.70
2017-10-09T10:47:40.972Z,1.65
2017-10-09T10:50:09.833Z,1.40
2017-10-09T10:52:38.717Z,1.55
2017-10-09T10:55:07.575Z,1.70
2017-10-09T10:57:36.463Z,1.70
2017-10-09T11:00:05.319Z,1.52
2017-10-09T11:02:34.193Z,1.50
2017-10-09T11:05:03.047Z,1.83
2017-10-09T11:07:31.941Z,1.48
2017-10-09T11:10:00.801Z,1.90
2017-10-09T11:12:29.681Z,1.65
2017-10-09T11:14:58.535Z,1.80
2017-10-09T11:17:27.407Z,1.83
2017-10-09T11:19:56.260Z,1.95
2017-10-09T11:22:25.136Z,1.90
2017-10-09T11:24:54.000Z,1.30
2017-10-09T11:27:22.867Z,1.67
2017-10-09T11:29:51.724Z,2.55
2017-10-09T11:32:20.901Z,1.87
2017-10-09T11:34:49.755Z,1.48
2017-10-09T11:37:18.608Z,1.40
2017-10-09T11:39:47.576Z,1.20
2017-10-09T11:42:16.425Z,1.30
2017-10-09T11:44:45.296Z,1.62
2017-10-09T11:47:14.143Z,1.95
2017-10-09T11:49:43.016Z,1.55
2017-10-09T11:52:11.868Z,1.58
2017-10-09T11:54:40.738Z,1.80
2017-10-09T11:57:09.595Z,2.03
2017-10-09T11:59:38.465Z,1.60
2017-10-09T12:02:07.324Z,1.80
2017-10-09T12:04:36.201Z,1.60
2017-10-09T12:07:05.067Z,2.15
2017-10-09T12:09:33.962Z,2.37
2017-10-09T12:12:02.815Z,1.77
2017-10-09T12:14:31.668Z,1.73
2017-10-09T12:17:00.540Z,4.87
2017-10-09T12:19:29.397Z,2.67
2017-10-09T12:21:58.273Z,1.70
2017-10-09T12:24:27.134Z,1.80
2017-10-09T12:26:56.007Z,1.27
2017-10-09T12:29:24.872Z,1.63
2017-10-09T12:31:53.748Z,1.63
2017-10-09T12:34:22.600Z,1.47
2017-10-09T12:36:51.473Z,1.73
2017-10-09T12:39:20.336Z,2.40
2017-10-09T12:41:49.208Z,3.23
2017-10-09T12:44:18.065Z,2.10
2017-10-09T12:46:46.936Z,1.50
2017-10-09T12:49:15.793Z,2.00
2017-10-09T12:51:44.664Z,1.63
2017-10-09T12:54:13.524Z,1.80
2017-10-09T12:56:42.392Z,1.50
2017-10-09T12:59:11.247Z,1.90
2017-10-09T13:01:40.131Z,1.40
2017-10-09T13:04:08.996Z,1.30
2017-10-09T13:06:37.857Z,3.30
2017-10-09T13:09:06.729Z,2.93
2017-10-09T13:11:35.593Z,2.03
2017-10-09T13:14:04.468Z,1.73
2017-10-09T13:16:33.324Z,1.37
2017-10-09T13:19:02.196Z,2.30
2017-10-09T13:21:31.061Z,2.33
2017-10-09T13:23:59.936Z,2.33
2017-10-09T13:26:28.792Z,2.80
2017-10-09T13:28:57.668Z,2.13
2017-10-09T13:31:26.520Z,4.03
2017-10-09T13:33:55.396Z,3.97
2017-10-09T13:36:24.256Z,2.10
2017-10-09T13:38:53.138Z,2.70
2017-10-09T13:41:21.996Z,2.40
2017-10-09T13:43:50.852Z,2.20
2017-10-09T13:46:19.729Z,1.97
2017-10-09T13:48:48.588Z,3.17
2017-10-09T13:51:17.465Z,2.37
2017-10-09T13:53:46.321Z,2.30
2017-10-09T13:56:15.200Z,2.43
2017-10-09T13:58:44.061Z,3.30
2017-10-09T14:01:12.929Z,2.83
2017-10-09T14:03:41.792Z,2.87
2017-10-09T14:06:10.668Z,2.20
2017-10-09T14:08:39.529Z,2.20
2017-10-09T14:11:08.405Z,2.93
2017-10-09T14:13:35.911Z,2.37
2017-10-09T14:16:03.445Z,2.37
2017-10-09T14:18:30.957Z,2.90
2017-10-09T14:20:59.240Z,3.43
2017-10-09T14:23:27.532Z,3.20
2017-10-09T14:25:55.810Z,2.90
2017-10-09T14:28:23.336Z,3.33
2017-10-09T14:30:50.853Z,3.37
2017-10-09T14:40:41.653Z,2.47
2017-10-09T14:43:09.181Z,3.03
2017-10-09T14:45:36.699Z,3.80
2017-10-09T14:48:04.993Z,3.50
2017-10-09T14:50:32.509Z,3.10
2017-10-09T14:53:00.037Z,1.57
2017-10-09T14:55:27.544Z,2.20
2017-10-09T14:57:55.821Z,1.80
2017-10-09T15:00:24.108Z,2.20
2017-10-09T15:02:52.377Z,2.13
2017-10-09T15:05:20.681Z,2.50
2017-10-09T15:07:48.193Z,2.47
2017-10-09T15:10:15.718Z,3.07
2017-10-09T15:12:43.221Z,2.27
2017-10-09T15:15:10.762Z,2.70
2017-10-09T15:17:38.276Z,3.90
2017-10-09T15:20:05.813Z,3.90
2017-10-09T15:22:34.093Z,3.90
2017-10-09T15:25:02.388Z,2.80
2017-10-09T15:27:29.906Z,2.63
2017-10-09T15:29:57.436Z,2.30
2017-10-09T15:32:24.949Z,2.17
2017-10-09T15:34:53.231Z,3.37
2017-10-09T15:37:21.525Z,1.97
2017-10-09T15:39:49.041Z,2.97
2017-10-09T15:42:16.572Z,2.90
2017-10-09T15:44:44.090Z,2.37
2017-10-09T15:47:12.387Z,2.97
2017-10-09T15:49:39.905Z,3.03
2017-10-09T15:52:07.433Z,4.20
2017-10-09T15:54:34.944Z,2.47
2017-10-09T15:57:03.250Z,2.23
2017-10-09T15:59:30.761Z,2.00
2017-10-09T16:01:58.289Z,1.70
2017-10-09T16:04:25.806Z,2.77
2017-10-09T16:06:53.333Z,3.00
2017-10-09T16:09:20.843Z,5.37
2017-10-09T16:11:48.353Z,3.63
2017-10-09T16:14:16.073Z,3.37
2017-10-09T16:16:43.588Z,1.90
2017-10-09T16:19:11.881Z,2.23
2017-10-09T16:21:40.157Z,2.20
2017-10-09T16:24:08.456Z,2.77
2017-10-09T16:26:35.968Z,2.60
2017-10-09T16:29:03.513Z,2.57
2017-10-09T16:31:31.025Z,2.30
2017-10-09T16:33:58.548Z,2.20
2017-10-09T16:36:26.073Z,2.37
2017-10-09T16:38:53.613Z,2.40
2017-10-09T16:41:21.133Z,3.00
2017-10-09T16:43:49.424Z,3.80
2017-10-09T16:46:17.717Z,3.90
2017-10-09T16:48:45.237Z,2.90
2017-10-09T16:51:12.771Z,2.97
2017-10-09T16:53:40.289Z,2.40
2017-10-09T16:56:07.825Z,2.20
2017-10-09T16:58:35.341Z,1.73
2017-10-09T17:01:02.863Z,1.93
2017-10-09T17:03:31.141Z,2.40
2017-10-09T17:05:59.444Z,2.77
2017-10-09T17:08:26.974Z,3.10
2017-10-09T17:10:55.273Z,2.93
2017-10-09T17:13:22.786Z,2.33
2017-10-09T17:15:50.325Z,2.03
2017-10-09T17:18:17.836Z,2.73
2017-10-09T17:20:45.369Z,2.47
2017-10-09T17:23:12.887Z,3.00
2017-10-09T17:25:40.418Z,3.37
2017-10-09T17:28:07.929Z,2.63
2017-10-09T17:30:35.456Z,2.57
2017-10-09T17:33:02.996Z,2.73
2017-10-09T17:35:30.530Z,3.00
2017-10-09T17:37:58.051Z,3.83
2017-10-09T17:40:25.569Z,3.40
2017-10-09T17:42:53.869Z,2.30
2017-10-09T17:45:21.392Z,3.20
2017-10-09T17:47:49.692Z,3.50
2017-10-09T17:50:17.207Z,3.77
2017-10-09T17:52:44.746Z,2.70
2017-10-09T17:55:12.257Z,3.03
2017-10-09T17:57:40.567Z,4.27
2017-10-09T18:00:08.081Z,3.50
2017-10-09T18:02:35.613Z,3.17
2017-10-09T18:05:03.249Z,2.80
2017-10-09T18:07:30.777Z,2.80
2017-10-09T18:09:59.053Z,2.80
2017-10-09T18:12:27.343Z,3.33
2017-10-09T18:14:54.853Z,3.40
2017-10-09T18:17:22.360Z,3.13
2017-10-09T18:19:49.915Z,3.23
2017-10-09T18:22:17.446Z,2.63
2017-10-09T18:24:44.973Z,3.23
2017-10-09T18:27:12.481Z,3.27
2017-10-09T18:29:40.778Z,3.30
2017-10-09T18:32:08.295Z,4.53
2017-10-09T18:34:35.827Z,6.30
2017-10-09T18:37:03.350Z,4.03
2017-10-09T18:39:31.641Z,4.20
2017-10-09T18:41:59.152Z,3.87
2017-10-09T18:44:26.677Z,4.70
2017-10-09T18:46:54.206Z,3.60
2017-10-09T18:49:22.500Z,4.13
2017-10-09T18:51:50.031Z,2.83
2017-10-09T18:54:18.330Z,4.37
2017-10-09T18:56:45.841Z,3.20
2017-10-09T18:59:13.380Z,3.07
2017-10-09T19:01:40.904Z,3.53
2017-10-09T19:04:09.202Z,3.20
2017-10-09T19:06:36.729Z,3.10
2017-10-09T19:09:05.021Z,4.40
2017-10-09T19:11:32.557Z,3.33
2017-10-09T19:14:00.061Z,4.00
2017-10-09T19:16:27.590Z,4.10
2017-10-09T19:18:55.108Z,4.37
2017-10-09T19:21:22.637Z,3.67
2017-10-09T19:23:50.153Z,4.40
2017-10-09T19:26:18.460Z,4.50
2017-10-09T19:28:45.969Z,4.77
2017-10-09T19:31:13.501Z,3.33
2017-10-09T19:33:41.012Z,3.90
2017-10-09T19:36:09.309Z,3.00
2017-10-09T19:38:37.586Z,3.73
2017-10-09T19:41:05.885Z,3.03
2017-10-09T19:43:33.397Z,3.70
2017-10-09T19:46:01.739Z,2.90
2017-10-09T19:48:29.257Z,3.37
2017-10-09T19:50:57.534Z,4.00
2017-10-09T19:53:25.074Z,4.13
2017-10-09T19:55:53.370Z,4.03
2017-10-09T19:58:21.661Z,3.67
2017-10-09T20:00:49.173Z,3.57
2017-10-09T20:03:16.856Z,3.47
2017-10-09T20:05:45.137Z,3.73
2017-10-09T20:08:13.434Z,4.63
2017-10-09T20:10:40.954Z,4.50
2017-10-09T20:13:08.502Z,4.40
2017-10-09T20:15:36.004Z,3.53
2017-10-09T20:18:04.289Z,5.27
2017-10-09T20:20:31.797Z,4.70
2017-10-09T20:22:59.328Z,4.80
2017-10-09T20:25:27.730Z,4.40
2017-10-09T20:27:55.246Z,4.23
2017-10-09T20:30:23.537Z,4.30
2017-10-09T20:32:51.057Z,4.53
2017-10-09T20:35:18.588Z,4.63
2017-10-09T20:37:46.115Z,5.17
2017-10-09T20:40:13.647Z,4.60
2017-10-09T20:42:41.932Z,4.90
2017-10-09T20:45:09.480Z,4.90
2017-10-09T20:47:37.774Z,4.80
2017-10-09T20:50:06.077Z,4.30
2017-10-09T20:52:33.582Z,4.67
2017-10-09T20:55:01.109Z,4.23
2017-10-09T20:57:28.622Z,4.90
2017-10-09T20:59:56.912Z,4.17
2017-10-09T21:02:24.421Z,4.90
2017-10-09T21:04:51.929Z,4.63
2017-10-09T21:07:19.456Z,4.10
2017-10-09T21:09:46.973Z,3.70
2017-10-09T21:12:14.518Z,4.43
2017-10-09T21:14:42.035Z,4.93
2017-10-09T21:17:09.564Z,4.87
2017-10-09T21:19:37.841Z,4.83
2017-10-09T21:22:05.373Z,5.10
2017-10-09T21:24:32.889Z,4.40
2017-10-09T21:27:00.417Z,5.27
2017-10-09T21:29:27.947Z,5.43
2017-10-09T21:31:55.477Z,4.33
2017-10-09T21:34:22.996Z,4.90
2017-10-09T21:36:50.521Z,5.10
2017-10-09T21:39:18.826Z,4.80
2017-10-09T21:41:46.343Z,5.03
2017-10-09T21:44:14.752Z,4.23
2017-10-09T21:46:42.222Z,4.90
2017-10-09T21:49:09.753Z,4.80
2017-10-09T21:51:38.028Z,4.70
2017-10-09T21:54:06.322Z,4.20
2017-10-09T21:56:33.893Z,4.10
2017-10-09T21:59:01.422Z,5.17
2017-10-09T22:01:29.701Z,5.37
2017-10-09T22:03:57.993Z,5.67
2017-10-09T22:06:25.510Z,5.97
2017-10-09T22:08:53.040Z,6.37
2017-10-09T22:11:20.550Z,4.90
2017-10-09T22:13:48.847Z,7.97
2017-10-09T22:16:16.360Z,6.60
2017-10-09T22:18:43.890Z,6.00
2017-10-09T22:21:11.421Z,6.47
2017-10-09T22:23:38.937Z,6.40
2017-10-09T22:26:06.473Z,7.40
2017-10-09T22:28:33.989Z,7.20
2017-10-09T22:31:02.277Z,6.50
2017-10-09T22:33:30.557Z,6.83
2017-10-09T22:35:58.080Z,6.83
2017-10-09T22:38:25.590Z,7.17
2017-10-09T22:40:53.118Z,7.80
2017-10-09T22:43:21.388Z,7.80
2017-10-09T22:45:48.913Z,8.33
2017-10-09T22:48:16.496Z,7.70
2017-10-09T22:50:44.030Z,7.80
2017-10-09T22:53:11.546Z,8.13
2017-10-09T22:55:39.841Z,6.33
2017-10-09T22:58:07.369Z,9.80
2017-10-09T23:00:35.653Z,8.77
2017-10-09T23:03:03.945Z,8.63
2017-10-09T23:05:31.464Z,10.30
2017-10-09T23:07:59.002Z,10.47
2017-10-09T23:10:26.521Z,9.40
2017-10-09T23:12:54.049Z,8.37
2017-10-09T23:15:21.566Z,11.27
2017-10-09T23:17:49.110Z,9.70
2017-10-09T23:20:16.633Z,10.50
2017-10-09T23:22:44.160Z,12.20
2017-10-09T23:25:11.675Z,10.00
2017-10-09T23:27:39.973Z,11.27
2017-10-09T23:30:07.488Z,11.13
2017-10-09T23:32:35.010Z,11.47
2017-10-09T23:35:02.557Z,11.33
2017-10-09T23:37:30.095Z,13.37
2017-10-09T23:39:58.410Z,13.20
2017-10-09T23:42:25.928Z,10.70
2017-10-09T23:44:53.482Z,13.17
2017-10-09T23:47:21.775Z,13.60
2017-10-09T23:49:49.305Z,12.40
2017-10-09T23:52:16.821Z,12.70
2017-10-09T23:54:44.366Z,12.57
2017-10-09T23:57:11.886Z,12.17
2017-10-09T23:59:39.417Z,12.90
